TimeCST,TemperatureF,Dew PointF,Humidity,Sea Level PressureIn,VisibilityMPH,Wind Direction,Wind SpeedMPH,Gust SpeedMPH,PrecipitationIn,Events,Conditions,WindDirDegrees,DateUTC
12:53 AM,26.1,17.1,69,30.42,10.0,ENE,4.6,-,N/A,,Clear,60,2013-03-06 06:53:00
1:53 AM,23.0,16.0,74,30.43,10.0,ENE,5.8,-,N/A,,Clear,70,2013-03-06 07:53:00
2:53 AM,21.0,16.0,81,30.42,10.0,East,5.8,-,N/A,,Clear,100,2013-03-06 08:53:00
3:53 AM,19.9,16.0,85,30.40,10.0,East,9.2,-,N/A,,Clear,90,2013-03-06 09:53:00
4:53 AM,19.9,15.1,81,30.40,10.0,East,5.8,-,N/A,,Clear,100,2013-03-06 10:53:00
5:53 AM,19.0,15.1,85,30.40,10.0,East,4.6,-,N/A,,Clear,90,2013-03-06 11:53:00
6:53 AM,19.9,16.0,85,30.42,10.0,ESE,6.9,-,N/A,,Clear,120,2013-03-06 12:53:00
7:53 AM,21.9,17.1,82,30.42,10.0,SE,10.4,-,N/A,,Clear,130,2013-03-06 13:53:00
8:53 AM,25.0,19.0,78,30.43,10.0,ESE,13.8,-,N/A,,Clear,120,2013-03-06 14:53:00
9:53 AM,28.9,21.0,72,30.42,10.0,SE,11.5,-,N/A,,Clear,130,2013-03-06 15:53:00
10:53 AM,33.1,21.9,64,30.40,10.0,SSE,12.7,-,N/A,,Clear,150,2013-03-06 16:53:00
11:53 AM,35.1,21.9,59,30.36,10.0,SSE,17.3,-,N/A,,Clear,160,2013-03-06 17:53:00
12:53 PM,39.9,25.0,55,30.31,10.0,SE,18.4,26.5,N/A,,Clear,140,2013-03-06 18:53:00
1:53 PM,42.1,26.1,53,30.26,10.0,SE,21.9,27.6,N/A,,Clear,130,2013-03-06 19:53:00
2:53 PM,41.0,26.1,55,30.23,10.0,SE,23.0,-,N/A,,Clear,140,2013-03-06 20:53:00
3:53 PM,43.0,27.0,53,30.20,10.0,SE,20.7,-,N/A,,Clear,140,2013-03-06 21:53:00
4:53 PM,45.0,25.0,46,30.19,10.0,South,20.7,-,N/A,,Clear,170,2013-03-06 22:53:00
5:53 PM,42.1,25.0,51,30.17,10.0,North,-9999.0,-,N/A,,Clear,0,2013-03-06 23:53:00
6:53 PM,37.9,26.1,62,30.18,10.0,SSE,12.7,-,N/A,,Clear,150,2013-03-07 00:53:00
7:53 PM,35.1,26.1,70,30.16,10.0,SE,16.1,-,N/A,,Clear,140,2013-03-07 01:53:00
8:53 PM,34.0,26.1,73,30.14,10.0,SE,16.1,-,N/A,,Clear,140,2013-03-07 02:53:00
9:53 PM,33.1,26.1,75,30.14,10.0,SE,13.8,-,N/A,,Clear,140,2013-03-07 03:53:00
10:53 PM,34.0,24.1,67,30.13,10.0,SSE,17.3,-,N/A,,Clear,150,2013-03-07 04:53:00
11:53 PM,34.0,23.0,64,30.12,10.0,SSE,13.8,-,N/A,,Clear,150,2013-03-07 05:53:00